sensor_id;sensor_type;location;lat;lon;timestamp;P1;durP1;ratioP1;P2;durP2;ratioP2
29214;SDS011;16252;49.816;7.964;2023-05-15T00:00:28;2.22;;;1.48;;
29214;SDS011;16252;49.816;7.964;2023-05-15T00:02:54;1.25;;;1.15;;
29214;SDS011;16252;49.816;7.964;2023-05-15T00:05:21;1.40;;;1.30;;
29214;SDS011;16252;49.816;7.964;2023-05-15T00:07:46;1.73;;;1.50;;
29214;SDS011;16252;49.816;7.964;2023-05-15T00:10:11;1.80;;;1.70;;
29214;SDS011;16252;49.816;7.964;2023-05-15T00:12:36;1.75;;;1.65;;
29214;SDS011;16252;49.816;7.964;2023-05-15T00:15:02;3.25;;;1.40;;
29214;SDS011;16252;49.816;7.964;2023-05-15T00:17:27;1.13;;;1.00;;
29214;SDS011;16252;49.816;7.964;2023-05-15T00:19:52;1.40;;;1.30;;
29214;SDS011;16252;49.816;7.964;2023-05-15T00:24:48;1.20;;;1.10;;
29214;SDS011;16252;49.816;7.964;2023-05-15T00:27:13;1.45;;;1.35;;
29214;SDS011;16252;49.816;7.964;2023-05-15T00:29:38;1.67;;;1.58;;
29214;SDS011;16252;49.816;7.964;2023-05-15T00:32:04;2.72;;;1.45;;
29214;SDS011;16252;49.816;7.964;2023-05-15T00:34:29;3.72;;;1.60;;
29214;SDS011;16252;49.816;7.964;2023-05-15T00:36:55;2.22;;;1.52;;
29214;SDS011;16252;49.816;7.964;2023-05-15T00:39:20;1.70;;;1.60;;
29214;SDS011;16252;49.816;7.964;2023-05-15T00:41:45;2.10;;;1.60;;
29214;SDS011;16252;49.816;7.964;2023-05-15T00:44:12;1.63;;;1.52;;
29214;SDS011;16252;49.816;7.964;2023-05-15T00:46:40;1.77;;;1.65;;
29214;SDS011;16252;49.816;7.964;2023-05-15T00:49:07;1.80;;;1.70;;
29214;SDS011;16252;49.816;7.964;2023-05-15T00:51:37;2.00;;;1.77;;
29214;SDS011;16252;49.816;7.964;2023-05-15T00:54:06;1.63;;;1.52;;
29214;SDS011;16252;49.816;7.964;2023-05-15T00:56:32;2.08;;;1.80;;
29214;SDS011;16252;49.816;7.964;2023-05-15T00:58:58;1.85;;;1.58;;
29214;SDS011;16252;49.816;7.964;2023-05-15T01:01:24;2.03;;;1.80;;
29214;SDS011;16252;49.816;7.964;2023-05-15T01:03:50;2.55;;;1.75;;
29214;SDS011;16252;49.816;7.964;2023-05-15T01:06:15;3.05;;;1.70;;
29214;SDS011;16252;49.816;7.964;2023-05-15T01:08:41;2.45;;;1.73;;
29214;SDS011;16252;49.816;7.964;2023-05-15T01:11:09;1.77;;;1.42;;
29214;SDS011;16252;49.816;7.964;2023-05-15T01:13:36;1.83;;;1.70;;
29214;SDS011;16252;49.816;7.964;2023-05-15T01:16:01;1.40;;;1.25;;
29214;SDS011;16252;49.816;7.964;2023-05-15T01:18:27;1.48;;;1.33;;
29214;SDS011;16252;49.816;7.964;2023-05-15T01:32:46;1.50;;;1.40;;
29214;SDS011;16252;49.816;7.964;2023-05-15T01:35:52;1.27;;;1.15;;
29214;SDS011;16252;49.816;7.964;2023-05-15T01:38:46;1.50;;;1.38;;
29214;SDS011;16252;49.816;7.964;2023-05-15T01:44:05;1.88;;;1.60;;
29214;SDS011;16252;49.816;7.964;2023-05-15T01:46:37;1.85;;;1.30;;
29214;SDS011;16252;49.816;7.964;2023-05-15T01:49:08;1.90;;;1.30;;
29214;SDS011;16252;49.816;7.964;2023-05-15T01:51:37;1.53;;;1.43;;
29214;SDS011;16252;49.816;7.964;2023-05-15T01:54:05;1.50;;;1.40;;
29214;SDS011;16252;49.816;7.964;2023-05-15T01:56:32;2.92;;;2.00;;
29214;SDS011;16252;49.816;7.964;2023-05-15T01:58:58;2.22;;;1.67;;
29214;SDS011;16252;49.816;7.964;2023-05-15T02:01:24;2.10;;;1.70;;
29214;SDS011;16252;49.816;7.964;2023-05-15T02:03:51;2.10;;;1.83;;
29214;SDS011;16252;49.816;7.964;2023-05-15T02:06:18;3.03;;;1.52;;
29214;SDS011;16252;49.816;7.964;2023-05-15T02:08:44;2.17;;;1.67;;
29214;SDS011;16252;49.816;7.964;2023-05-15T02:11:10;1.98;;;1.60;;
29214;SDS011;16252;49.816;7.964;2023-05-15T02:13:37;1.42;;;1.33;;
29214;SDS011;16252;49.816;7.964;2023-05-15T02:16:04;2.10;;;1.58;;
29214;SDS011;16252;49.816;7.964;2023-05-15T02:18:30;1.80;;;1.45;;
29214;SDS011;16252;49.816;7.964;2023-05-15T02:20:55;3.22;;;1.92;;
29214;SDS011;16252;49.816;7.964;2023-05-15T02:23:20;1.85;;;1.33;;
29214;SDS011;16252;49.816;7.964;2023-05-15T02:31:51;5.15;;;1.75;;
29214;SDS011;16252;49.816;7.964;2023-05-15T02:35:25;1.40;;;1.30;;
29214;SDS011;16252;49.816;7.964;2023-05-15T02:37:38;1.70;;;1.30;;
29214;SDS011;16252;49.816;7.964;2023-05-15T02:40:08;1.92;;;1.55;;
29214;SDS011;16252;49.816;7.964;2023-05-15T02:45:02;1.77;;;1.67;;
29214;SDS011;16252;49.816;7.964;2023-05-15T02:47:28;1.20;;;1.08;;
29214;SDS011;16252;49.816;7.964;2023-05-15T02:49:54;1.50;;;1.40;;
29214;SDS011;16252;49.816;7.964;2023-05-15T02:52:22;1.60;;;1.50;;
29214;SDS011;16252;49.816;7.964;2023-05-15T02:54:48;3.03;;;1.70;;
29214;SDS011;16252;49.816;7.964;2023-05-15T02:57:13;3.88;;;1.70;;
29214;SDS011;16252;49.816;7.964;2023-05-15T02:59:38;1.80;;;1.70;;
29214;SDS011;16252;49.816;7.964;2023-05-15T03:02:04;1.70;;;1.40;;
29214;SDS011;16252;49.816;7.964;2023-05-15T03:04:29;1.45;;;1.35;;
29214;SDS011;16252;49.816;7.964;2023-05-15T03:06:55;1.75;;;1.40;;
29214;SDS011;16252;49.816;7.964;2023-05-15T03:09:20;3.67;;;1.55;;
29214;SDS011;16252;49.816;7.964;2023-05-15T03:11:45;1.33;;;1.23;;
29214;SDS011;16252;49.816;7.964;2023-05-15T03:14:11;2.65;;;1.60;;
29214;SDS011;16252;49.816;7.964;2023-05-15T03:16:36;2.53;;;1.73;;
29214;SDS011;16252;49.816;7.964;2023-05-15T03:19:02;2.28;;;1.60;;
29214;SDS011;16252;49.816;7.964;2023-05-15T03:21:28;1.67;;;1.58;;
29214;SDS011;16252;49.816;7.964;2023-05-15T03:23:53;2.08;;;1.58;;
29214;SDS011;16252;49.816;7.964;2023-05-15T03:26:18;2.00;;;1.80;;
29214;SDS011;16252;49.816;7.964;2023-05-15T03:28:44;1.55;;;1.38;;
29214;SDS011;16252;49.816;7.964;2023-05-15T03:31:09;2.17;;;1.60;;
29214;SDS011;16252;49.816;7.964;2023-05-15T03:33:36;1.55;;;1.40;;
29214;SDS011;16252;49.816;7.964;2023-05-15T03:36:02;1.83;;;1.60;;
29214;SDS011;16252;49.816;7.964;2023-05-15T03:38:27;2.22;;;1.80;;
29214;SDS011;16252;49.816;7.964;2023-05-15T03:40:53;1.98;;;1.80;;
29214;SDS011;16252;49.816;7.964;2023-05-15T03:43:18;1.90;;;1.70;;
29214;SDS011;16252;49.816;7.964;2023-05-15T03:45:43;2.40;;;1.88;;
29214;SDS011;16252;49.816;7.964;2023-05-15T03:48:08;2.90;;;1.80;;
29214;SDS011;16252;49.816;7.964;2023-05-15T03:50:34;2.03;;;1.48;;
29214;SDS011;16252;49.816;7.964;2023-05-15T03:52:59;1.98;;;1.75;;
29214;SDS011;16252;49.816;7.964;2023-05-15T03:55:24;1.70;;;1.60;;
29214;SDS011;16252;49.816;7.964;2023-05-15T03:57:50;1.60;;;1.50;;
29214;SDS011;16252;49.816;7.964;2023-05-15T04:00:15;1.67;;;1.50;;
29214;SDS011;16252;49.816;7.964;2023-05-15T04:02:41;3.00;;;1.70;;
29214;SDS011;16252;49.816;7.964;2023-05-15T04:05:06;2.03;;;1.67;;
29214;SDS011;16252;49.816;7.964;2023-05-15T04:07:33;1.70;;;1.50;;
29214;SDS011;16252;49.816;7.964;2023-05-15T04:09:59;2.60;;;1.67;;
29214;SDS011;16252;49.816;7.964;2023-05-15T04:12:28;9.52;;;2.08;;
29214;SDS011;16252;49.816;7.964;2023-05-15T04:14:58;2.00;;;1.63;;
29214;SDS011;16252;49.816;7.964;2023-05-15T04:17:36;2.05;;;1.80;;
29214;SDS011;16252;49.816;7.964;2023-05-15T04:20:02;3.75;;;1.83;;
29214;SDS011;16252;49.816;7.964;2023-05-15T04:22:28;3.75;;;1.75;;
29214;SDS011;16252;49.816;7.964;2023-05-15T04:24:53;1.80;;;1.60;;
29214;SDS011;16252;49.816;7.964;2023-05-15T04:27:18;1.55;;;1.45;;
29214;SDS011;16252;49.816;7.964;2023-05-15T04:29:43;2.63;;;1.80;;
29214;SDS011;16252;49.816;7.964;2023-05-15T04:32:09;1.98;;;1.70;;
29214;SDS011;16252;49.816;7.964;2023-05-15T04:34:36;1.77;;;1.67;;
29214;SDS011;16252;49.816;7.964;2023-05-15T04:37:01;2.55;;;1.90;;
29214;SDS011;16252;49.816;7.964;2023-05-15T04:39:27;1.88;;;1.67;;
29214;SDS011;16252;49.816;7.964;2023-05-15T04:41:52;1.95;;;1.75;;
29214;SDS011;16252;49.816;7.964;2023-05-15T04:44:17;1.73;;;1.58;;
29214;SDS011;16252;49.816;7.964;2023-05-15T04:46:43;1.88;;;1.60;;
29214;SDS011;16252;49.816;7.964;2023-05-15T04:49:08;1.60;;;1.50;;
29214;SDS011;16252;49.816;7.964;2023-05-15T04:51:34;3.10;;;1.80;;
29214;SDS011;16252;49.816;7.964;2023-05-15T04:53:59;2.33;;;1.88;;
29214;SDS011;16252;49.816;7.964;2023-05-15T04:56:24;2.47;;;1.80;;
29214;SDS011;16252;49.816;7.964;2023-05-15T04:58:50;1.88;;;1.67;;
29214;SDS011;16252;49.816;7.964;2023-05-15T05:01:15;1.70;;;1.42;;
29214;SDS011;16252;49.816;7.964;2023-05-15T05:03:40;2.42;;;1.55;;
29214;SDS011;16252;49.816;7.964;2023-05-15T05:06:05;2.20;;;1.95;;
29214;SDS011;16252;49.816;7.964;2023-05-15T05:08:31;1.90;;;1.65;;
29214;SDS011;16252;49.816;7.964;2023-05-15T05:10:56;2.30;;;1.65;;
29214;SDS011;16252;49.816;7.964;2023-05-15T05:13:21;1.70;;;1.60;;
29214;SDS011;16252;49.816;7.964;2023-05-15T05:15:47;3.53;;;1.67;;
29214;SDS011;16252;49.816;7.964;2023-05-15T05:18:12;1.90;;;1.70;;
29214;SDS011;16252;49.816;7.964;2023-05-15T05:20:37;4.95;;;1.85;;
29214;SDS011;16252;49.816;7.964;2023-05-15T05:23:03;1.92;;;1.60;;
29214;SDS011;16252;49.816;7.964;2023-05-15T05:25:28;1.63;;;1.52;;
29214;SDS011;16252;49.816;7.964;2023-05-15T05:27:53;4.28;;;1.90;;
29214;SDS011;16252;49.816;7.964;2023-05-15T05:30:18;3.10;;;2.30;;
29214;SDS011;16252;49.816;7.964;2023-05-15T05:32:44;3.22;;;1.95;;
29214;SDS011;16252;49.816;7.964;2023-05-15T05:35:09;3.55;;;2.10;;
29214;SDS011;16252;49.816;7.964;2023-05-15T05:37:35;3.92;;;2.55;;
29214;SDS011;16252;49.816;7.964;2023-05-15T05:40:00;3.13;;;2.67;;
29214;SDS011;16252;49.816;7.964;2023-05-15T05:42:25;3.15;;;2.83;;
29214;SDS011;16252;49.816;7.964;2023-05-15T05:44:51;2.83;;;2.63;;
29214;SDS011;16252;49.816;7.964;2023-05-15T05:47:16;2.83;;;2.60;;
29214;SDS011;16252;49.816;7.964;2023-05-15T05:49:42;3.10;;;2.80;;
29214;SDS011;16252;49.816;7.964;2023-05-15T05:52:07;2.80;;;2.47;;
29214;SDS011;16252;49.816;7.964;2023-05-15T05:54:33;3.65;;;2.58;;
29214;SDS011;16252;49.816;7.964;2023-05-15T05:56:58;4.40;;;3.65;;
29214;SDS011;16252;49.816;7.964;2023-05-15T05:59:24;4.97;;;4.10;;
29214;SDS011;16252;49.816;7.964;2023-05-15T06:01:49;6.93;;;5.10;;
29214;SDS011;16252;49.816;7.964;2023-05-15T06:04:15;5.15;;;4.55;;
29214;SDS011;16252;49.816;7.964;2023-05-15T06:06:41;8.85;;;6.05;;
29214;SDS011;16252;49.816;7.964;2023-05-15T06:09:06;8.18;;;6.10;;
29214;SDS011;16252;49.816;7.964;2023-05-15T06:11:32;7.32;;;5.43;;
29214;SDS011;16252;49.816;7.964;2023-05-15T06:13:57;9.57;;;5.97;;
29214;SDS011;16252;49.816;7.964;2023-05-15T06:16:22;10.65;;;7.13;;
29214;SDS011;16252;49.816;7.964;2023-05-15T06:18:48;10.88;;;8.02;;
29214;SDS011;16252;49.816;7.964;2023-05-15T06:21:13;10.15;;;8.07;;
29214;SDS011;16252;49.816;7.964;2023-05-15T06:23:38;11.80;;;8.65;;
29214;SDS011;16252;49.816;7.964;2023-05-15T06:26:04;13.40;;;9.65;;
29214;SDS011;16252;49.816;7.964;2023-05-15T06:28:29;13.65;;;9.60;;
29214;SDS011;16252;49.816;7.964;2023-05-15T06:30:54;16.52;;;11.10;;
29214;SDS011;16252;49.816;7.964;2023-05-15T06:33:20;17.83;;;11.32;;
29214;SDS011;16252;49.816;7.964;2023-05-15T06:35:46;20.15;;;12.90;;
29214;SDS011;16252;49.816;7.964;2023-05-15T06:38:11;20.05;;;13.65;;
29214;SDS011;16252;49.816;7.964;2023-05-15T06:40:37;19.20;;;13.20;;
29214;SDS011;16252;49.816;7.964;2023-05-15T06:43:02;18.05;;;13.20;;
29214;SDS011;16252;49.816;7.964;2023-05-15T06:45:27;21.00;;;14.55;;
29214;SDS011;16252;49.816;7.964;2023-05-15T06:47:53;21.00;;;13.65;;
29214;SDS011;16252;49.816;7.964;2023-05-15T06:50:18;20.05;;;14.15;;
29214;SDS011;16252;49.816;7.964;2023-05-15T06:52:43;22.25;;;15.00;;
29214;SDS011;16252;49.816;7.964;2023-05-15T06:55:09;21.85;;;14.95;;
29214;SDS011;16252;49.816;7.964;2023-05-15T06:57:34;23.13;;;15.90;;
29214;SDS011;16252;49.816;7.964;2023-05-15T06:59:59;24.00;;;16.75;;
29214;SDS011;16252;49.816;7.964;2023-05-15T07:02:24;20.45;;;14.23;;
29214;SDS011;16252;49.816;7.964;2023-05-15T07:04:50;25.85;;;16.20;;
29214;SDS011;16252;49.816;7.964;2023-05-15T07:07:15;22.63;;;15.25;;
29214;SDS011;16252;49.816;7.964;2023-05-15T07:09:40;21.63;;;15.13;;
29214;SDS011;16252;49.816;7.964;2023-05-15T07:12:06;24.92;;;16.95;;
29214;SDS011;16252;49.816;7.964;2023-05-15T07:14:31;24.65;;;16.27;;
29214;SDS011;16252;49.816;7.964;2023-05-15T07:16:58;23.90;;;14.88;;
29214;SDS011;16252;49.816;7.964;2023-05-15T07:19:23;26.65;;;17.35;;
29214;SDS011;16252;49.816;7.964;2023-05-15T07:21:48;27.08;;;18.05;;
29214;SDS011;16252;49.816;7.964;2023-05-15T07:24:13;29.90;;;17.13;;
29214;SDS011;16252;49.816;7.964;2023-05-15T07:26:39;23.33;;;17.30;;
29214;SDS011;16252;49.816;7.964;2023-05-15T07:29:04;26.75;;;17.35;;
29214;SDS011;16252;49.816;7.964;2023-05-15T07:31:29;25.88;;;17.67;;
29214;SDS011;16252;49.816;7.964;2023-05-15T07:33:57;25.83;;;16.88;;
29214;SDS011;16252;49.816;7.964;2023-05-15T07:36:23;26.48;;;16.73;;
29214;SDS011;16252;49.816;7.964;2023-05-15T07:38:48;26.05;;;17.17;;
29214;SDS011;16252;49.816;7.964;2023-05-15T07:41:13;21.60;;;15.65;;
29214;SDS011;16252;49.816;7.964;2023-05-15T07:43:38;23.75;;;16.23;;
29214;SDS011;16252;49.816;7.964;2023-05-15T07:46:04;23.77;;;15.98;;
29214;SDS011;16252;49.816;7.964;2023-05-15T07:48:29;24.48;;;16.25;;
29214;SDS011;16252;49.816;7.964;2023-05-15T07:50:54;20.50;;;15.23;;
29214;SDS011;16252;49.816;7.964;2023-05-15T07:53:21;18.45;;;14.35;;
29214;SDS011;16252;49.816;7.964;2023-05-15T07:55:46;19.38;;;14.60;;
29214;SDS011;16252;49.816;7.964;2023-05-15T07:58:11;16.23;;;12.85;;
29214;SDS011;16252;49.816;7.964;2023-05-15T08:00:37;19.80;;;14.70;;
29214;SDS011;16252;49.816;7.964;2023-05-15T08:03:02;20.33;;;15.23;;
29214;SDS011;16252;49.816;7.964;2023-05-15T08:05:28;21.25;;;15.65;;
29214;SDS011;16252;49.816;7.964;2023-05-15T08:07:54;21.83;;;15.50;;
29214;SDS011;16252;49.816;7.964;2023-05-15T08:10:20;17.92;;;14.10;;
29214;SDS011;16252;49.816;7.964;2023-05-15T08:12:45;19.58;;;14.10;;
29214;SDS011;16252;49.816;7.964;2023-05-15T08:15:11;18.63;;;14.02;;
29214;SDS011;16252;49.816;7.964;2023-05-15T08:17:37;19.15;;;14.43;;
29214;SDS011;16252;49.816;7.964;2023-05-15T08:20:02;16.58;;;14.23;;
29214;SDS011;16252;49.816;7.964;2023-05-15T08:22:29;17.70;;;14.18;;
29214;SDS011;16252;49.816;7.964;2023-05-15T08:24:54;15.93;;;12.55;;
29214;SDS011;16252;49.816;7.964;2023-05-15T08:27:20;16.90;;;14.07;;
29214;SDS011;16252;49.816;7.964;2023-05-15T08:29:47;14.63;;;11.82;;
29214;SDS011;16252;49.816;7.964;2023-05-15T08:32:13;15.55;;;11.77;;
29214;SDS011;16252;49.816;7.964;2023-05-15T08:34:38;16.48;;;12.95;;
29214;SDS011;16252;49.816;7.964;2023-05-15T08:37:03;14.82;;;11.75;;
29214;SDS011;16252;49.816;7.964;2023-05-15T08:39:30;15.43;;;11.63;;
29214;SDS011;16252;49.816;7.964;2023-05-15T08:41:57;14.60;;;12.43;;
29214;SDS011;16252;49.816;7.964;2023-05-15T08:44:32;13.80;;;11.20;;
29214;SDS011;16252;49.816;7.964;2023-05-15T08:46:57;16.90;;;12.70;;
29214;SDS011;16252;49.816;7.964;2023-05-15T08:52:16;15.32;;;11.60;;
29214;SDS011;16252;49.816;7.964;2023-05-15T08:54:41;15.95;;;12.02;;
29214;SDS011;16252;49.816;7.964;2023-05-15T08:57:07;16.60;;;11.43;;
29214;SDS011;16252;49.816;7.964;2023-05-15T08:59:33;14.00;;;11.18;;
29214;SDS011;16252;49.816;7.964;2023-05-15T09:01:58;14.80;;;11.27;;
29214;SDS011;16252;49.816;7.964;2023-05-15T09:04:24;14.48;;;11.05;;
29214;SDS011;16252;49.816;7.964;2023-05-15T09:06:49;15.77;;;10.90;;
29214;SDS011;16252;49.816;7.964;2023-05-15T09:09:15;16.45;;;12.40;;
29214;SDS011;16252;49.816;7.964;2023-05-15T09:11:43;15.80;;;11.55;;
29214;SDS011;16252;49.816;7.964;2023-05-15T09:14:09;15.15;;;11.82;;
29214;SDS011;16252;49.816;7.964;2023-05-15T09:16:35;18.15;;;12.20;;
29214;SDS011;16252;49.816;7.964;2023-05-15T09:19:00;15.90;;;11.07;;
29214;SDS011;16252;49.816;7.964;2023-05-15T09:21:29;16.38;;;11.50;;
29214;SDS011;16252;49.816;7.964;2023-05-15T09:24:17;15.95;;;11.88;;
29214;SDS011;16252;49.816;7.964;2023-05-15T09:26:45;14.60;;;11.50;;
29214;SDS011;16252;49.816;7.964;2023-05-15T09:29:14;16.42;;;11.52;;
29214;SDS011;16252;49.816;7.964;2023-05-15T09:31:40;18.05;;;11.20;;
29214;SDS011;16252;49.816;7.964;2023-05-15T09:34:06;16.13;;;10.95;;
29214;SDS011;16252;49.816;7.964;2023-05-15T09:36:33;14.40;;;10.45;;
29214;SDS011;16252;49.816;7.964;2023-05-15T09:38:59;12.55;;;10.07;;
29214;SDS011;16252;49.816;7.964;2023-05-15T09:41:25;12.55;;;10.05;;
29214;SDS011;16252;49.816;7.964;2023-05-15T09:43:51;12.27;;;9.95;;
29214;SDS011;16252;49.816;7.964;2023-05-15T09:46:18;12.60;;;10.05;;
29214;SDS011;16252;49.816;7.964;2023-05-15T09:48:43;12.52;;;9.65;;
29214;SDS011;16252;49.816;7.964;2023-05-15T09:51:15;12.80;;;8.38;;
29214;SDS011;16252;49.816;7.964;2023-05-15T09:53:46;10.43;;;8.75;;
29214;SDS011;16252;49.816;7.964;2023-05-15T09:56:13;9.68;;;7.95;;
29214;SDS011;16252;49.816;7.964;2023-05-15T09:58:50;9.10;;;7.60;;
29214;SDS011;16252;49.816;7.964;2023-05-15T10:01:20;9.27;;;7.50;;
29214;SDS011;16252;49.816;7.964;2023-05-15T10:03:56;9.05;;;7.82;;
29214;SDS011;16252;49.816;7.964;2023-05-15T10:06:22;7.63;;;6.72;;
29214;SDS011;16252;49.816;7.964;2023-05-15T10:08:51;8.27;;;6.95;;
29214;SDS011;16252;49.816;7.964;2023-05-15T10:11:18;8.20;;;7.05;;
29214;SDS011;16252;49.816;7.964;2023-05-15T10:13:44;7.03;;;6.22;;
29214;SDS011;16252;49.816;7.964;2023-05-15T10:16:10;9.65;;;7.07;;
29214;SDS011;16252;49.816;7.964;2023-05-15T10:18:38;8.68;;;6.65;;
29214;SDS011;16252;49.816;7.964;2023-05-15T10:21:04;8.30;;;6.88;;
29214;SDS011;16252;49.816;7.964;2023-05-15T10:23:32;9.40;;;7.18;;
29214;SDS011;16252;49.816;7.964;2023-05-15T10:26:01;8.05;;;6.72;;
29214;SDS011;16252;49.816;7.964;2023-05-15T10:28:30;7.43;;;6.63;;
29214;SDS011;16252;49.816;7.964;2023-05-15T10:30:58;7.35;;;6.65;;
29214;SDS011;16252;49.816;7.964;2023-05-15T10:33:25;7.78;;;6.90;;
29214;SDS011;16252;49.816;7.964;2023-05-15T10:35:51;8.48;;;7.45;;
29214;SDS011;16252;49.816;7.964;2023-05-15T10:38:18;7.43;;;6.47;;
29214;SDS011;16252;49.816;7.964;2023-05-15T10:40:44;8.35;;;6.80;;
29214;SDS011;16252;49.816;7.964;2023-05-15T10:43:11;5.80;;;5.10;;
29214;SDS011;16252;49.816;7.964;2023-05-15T10:45:37;6.47;;;5.50;;
29214;SDS011;16252;49.816;7.964;2023-05-15T10:48:04;8.18;;;6.72;;
29214;SDS011;16252;49.816;7.964;2023-05-15T10:50:31;7.45;;;6.65;;
29214;SDS011;16252;49.816;7.964;2023-05-15T10:52:57;7.03;;;6.22;;
29214;SDS011;16252;49.816;7.964;2023-05-15T10:55:24;8.00;;;6.90;;
29214;SDS011;16252;49.816;7.964;2023-05-15T10:57:49;10.38;;;7.20;;
29214;SDS011;16252;49.816;7.964;2023-05-15T11:02:47;8.30;;;7.22;;
29214;SDS011;16252;49.816;7.964;2023-05-15T11:05:12;8.88;;;7.60;;
29214;SDS011;16252;49.816;7.964;2023-05-15T11:07:38;8.27;;;7.45;;
29214;SDS011;16252;49.816;7.964;2023-05-15T11:12:55;7.38;;;6.68;;
29214;SDS011;16252;49.816;7.964;2023-05-15T11:15:22;7.13;;;6.43;;
29214;SDS011;16252;49.816;7.964;2023-05-15T11:18:06;9.35;;;7.03;;
29214;SDS011;16252;49.816;7.964;2023-05-15T11:23:04;9.50;;;7.00;;
29214;SDS011;16252;49.816;7.964;2023-05-15T11:25:30;7.93;;;7.13;;
29214;SDS011;16252;49.816;7.964;2023-05-15T11:27:58;6.82;;;5.78;;
29214;SDS011;16252;49.816;7.964;2023-05-15T11:30:39;6.65;;;5.95;;
29214;SDS011;16252;49.816;7.964;2023-05-15T11:33:06;9.45;;;7.15;;
29214;SDS011;16252;49.816;7.964;2023-05-15T11:35:36;7.10;;;5.82;;
29214;SDS011;16252;49.816;7.964;2023-05-15T11:38:06;7.50;;;6.45;;
29214;SDS011;16252;49.816;7.964;2023-05-15T11:43:21;6.70;;;5.70;;
29214;SDS011;16252;49.816;7.964;2023-05-15T11:46:07;7.85;;;6.35;;
29214;SDS011;16252;49.816;7.964;2023-05-15T11:48:36;6.47;;;5.85;;
29214;SDS011;16252;49.816;7.964;2023-05-15T11:51:04;7.13;;;6.40;;
29214;SDS011;16252;49.816;7.964;2023-05-15T11:53:30;6.93;;;5.88;;
29214;SDS011;16252;49.816;7.964;2023-05-15T11:55:56;6.78;;;5.25;;
29214;SDS011;16252;49.816;7.964;2023-05-15T11:58:23;7.07;;;6.10;;
29214;SDS011;16252;49.816;7.964;2023-05-15T12:00:50;5.03;;;4.53;;
29214;SDS011;16252;49.816;7.964;2023-05-15T12:03:20;4.07;;;3.60;;
29214;SDS011;16252;49.816;7.964;2023-05-15T12:05:48;3.92;;;3.53;;
29214;SDS011;16252;49.816;7.964;2023-05-15T12:08:13;4.07;;;3.58;;
29214;SDS011;16252;49.816;7.964;2023-05-15T12:10:42;4.05;;;3.20;;
29214;SDS011;16252;49.816;7.964;2023-05-15T12:13:09;4.63;;;3.72;;
29214;SDS011;16252;49.816;7.964;2023-05-15T12:15:39;3.78;;;3.00;;
29214;SDS011;16252;49.816;7.964;2023-05-15T12:18:06;4.40;;;3.70;;
29214;SDS011;16252;49.816;7.964;2023-05-15T12:20:36;4.90;;;4.10;;
29214;SDS011;16252;49.816;7.964;2023-05-15T12:23:03;4.75;;;4.20;;
29214;SDS011;16252;49.816;7.964;2023-05-15T12:25:30;5.68;;;4.22;;
29214;SDS011;16252;49.816;7.964;2023-05-15T12:27:58;4.22;;;3.70;;
29214;SDS011;16252;49.816;7.964;2023-05-15T12:30:26;3.80;;;3.38;;
29214;SDS011;16252;49.816;7.964;2023-05-15T12:32:52;3.60;;;3.30;;
29214;SDS011;16252;49.816;7.964;2023-05-15T12:35:17;3.88;;;3.35;;
29214;SDS011;16252;49.816;7.964;2023-05-15T12:37:43;3.80;;;3.28;;
29214;SDS011;16252;49.816;7.964;2023-05-15T12:40:09;3.20;;;2.90;;
29214;SDS011;16252;49.816;7.964;2023-05-15T12:42:39;4.57;;;3.35;;
29214;SDS011;16252;49.816;7.964;2023-05-15T12:45:12;3.95;;;3.55;;
29214;SDS011;16252;49.816;7.964;2023-05-15T12:47:42;4.72;;;3.88;;
29214;SDS011;16252;49.816;7.964;2023-05-15T12:50:13;3.72;;;3.30;;
29214;SDS011;16252;49.816;7.964;2023-05-15T12:55:26;4.15;;;3.75;;
29214;SDS011;16252;49.816;7.964;2023-05-15T12:57:53;3.70;;;3.22;;
29214;SDS011;16252;49.816;7.964;2023-05-15T13:00:21;3.40;;;3.10;;
29214;SDS011;16252;49.816;7.964;2023-05-15T13:02:47;3.75;;;3.20;;
29214;SDS011;16252;49.816;7.964;2023-05-15T13:05:14;5.28;;;3.70;;
29214;SDS011;16252;49.816;7.964;2023-05-15T13:07:40;4.13;;;3.72;;
29214;SDS011;16252;49.816;7.964;2023-05-15T13:10:06;5.57;;;4.03;;
29214;SDS011;16252;49.816;7.964;2023-05-15T13:12:41;4.20;;;3.80;;
29214;SDS011;16252;49.816;7.964;2023-05-15T13:15:20;5.10;;;3.45;;
29214;SDS011;16252;49.816;7.964;2023-05-15T13:20:24;6.05;;;3.58;;
29214;SDS011;16252;49.816;7.964;2023-05-15T13:22:49;4.03;;;3.58;;
29214;SDS011;16252;49.816;7.964;2023-05-15T13:25:18;5.38;;;3.50;;
29214;SDS011;16252;49.816;7.964;2023-05-15T13:27:45;4.63;;;3.20;;
29214;SDS011;16252;49.816;7.964;2023-05-15T13:30:11;5.15;;;3.95;;
29214;SDS011;16252;49.816;7.964;2023-05-15T13:32:37;6.13;;;4.18;;
29214;SDS011;16252;49.816;7.964;2023-05-15T13:35:02;4.80;;;4.30;;
29214;SDS011;16252;49.816;7.964;2023-05-15T13:37:29;5.55;;;3.70;;
29214;SDS011;16252;49.816;7.964;2023-05-15T13:39:54;6.28;;;3.63;;
29214;SDS011;16252;49.816;7.964;2023-05-15T13:42:20;5.30;;;3.83;;
29214;SDS011;16252;49.816;7.964;2023-05-15T13:44:45;6.10;;;3.72;;
29214;SDS011;16252;49.816;7.964;2023-05-15T13:47:10;5.38;;;3.70;;
29214;SDS011;16252;49.816;7.964;2023-05-15T13:49:35;4.60;;;3.92;;
29214;SDS011;16252;49.816;7.964;2023-05-15T13:52:01;5.93;;;4.50;;
29214;SDS011;16252;49.816;7.964;2023-05-15T13:54:26;6.03;;;4.50;;
29214;SDS011;16252;49.816;7.964;2023-05-15T13:56:51;4.22;;;3.78;;
29214;SDS011;16252;49.816;7.964;2023-05-15T13:59:17;4.97;;;3.92;;
29214;SDS011;16252;49.816;7.964;2023-05-15T14:01:42;4.05;;;3.42;;
29214;SDS011;16252;49.816;7.964;2023-05-15T14:04:07;4.15;;;3.28;;
29214;SDS011;16252;49.816;7.964;2023-05-15T14:06:33;3.38;;;2.92;;
29214;SDS011;16252;49.816;7.964;2023-05-15T14:08:58;3.65;;;2.75;;
29214;SDS011;16252;49.816;7.964;2023-05-15T14:11:23;5.15;;;3.20;;
29214;SDS011;16252;49.816;7.964;2023-05-15T14:13:48;5.88;;;3.40;;
29214;SDS011;16252;49.816;7.964;2023-05-15T14:16:14;4.78;;;3.08;;
29214;SDS011;16252;49.816;7.964;2023-05-15T14:18:39;4.05;;;3.05;;
29214;SDS011;16252;49.816;7.964;2023-05-15T14:21:04;3.47;;;3.17;;
29214;SDS011;16252;49.816;7.964;2023-05-15T14:23:30;4.07;;;3.25;;
29214;SDS011;16252;49.816;7.964;2023-05-15T14:25:55;3.50;;;2.83;;
29214;SDS011;16252;49.816;7.964;2023-05-15T14:28:20;4.20;;;3.78;;
29214;SDS011;16252;49.816;7.964;2023-05-15T14:30:46;4.30;;;3.90;;
29214;SDS011;16252;49.816;7.964;2023-05-15T14:33:11;5.13;;;3.90;;
29214;SDS011;16252;49.816;7.964;2023-05-15T14:35:36;4.18;;;3.78;;
29214;SDS011;16252;49.816;7.964;2023-05-15T14:38:01;4.55;;;4.13;;
29214;SDS011;16252;49.816;7.964;2023-05-15T14:40:28;5.68;;;4.68;;
29214;SDS011;16252;49.816;7.964;2023-05-15T14:42:53;4.95;;;4.45;;
29214;SDS011;16252;49.816;7.964;2023-05-15T14:45:18;4.95;;;4.15;;
29214;SDS011;16252;49.816;7.964;2023-05-15T14:47:44;5.70;;;4.43;;
29214;SDS011;16252;49.816;7.964;2023-05-15T14:50:09;4.57;;;4.05;;
29214;SDS011;16252;49.816;7.964;2023-05-15T14:52:34;6.32;;;4.32;;
29214;SDS011;16252;49.816;7.964;2023-05-15T14:55:00;4.70;;;3.88;;
29214;SDS011;16252;49.816;7.964;2023-05-15T14:57:25;5.47;;;4.35;;
29214;SDS011;16252;49.816;7.964;2023-05-15T14:59:51;10.05;;;4.55;;
29214;SDS011;16252;49.816;7.964;2023-05-15T15:02:16;5.78;;;3.58;;
29214;SDS011;16252;49.816;7.964;2023-05-15T15:04:42;4.25;;;3.85;;
29214;SDS011;16252;49.816;7.964;2023-05-15T15:07:09;4.90;;;4.28;;
29214;SDS011;16252;49.816;7.964;2023-05-15T15:09:35;4.30;;;3.78;;
29214;SDS011;16252;49.816;7.964;2023-05-15T15:12:00;5.68;;;3.58;;
29214;SDS011;16252;49.816;7.964;2023-05-15T15:14:25;4.85;;;3.90;;
29214;SDS011;16252;49.816;7.964;2023-05-15T15:16:51;5.30;;;3.92;;
29214;SDS011;16252;49.816;7.964;2023-05-15T15:19:16;5.57;;;3.90;;
29214;SDS011;16252;49.816;7.964;2023-05-15T15:21:41;5.30;;;3.72;;